createdAt,value
2023-02-13T00:00:35.868Z,53.82
2023-02-13T00:03:02.980Z,54.50
2023-02-13T00:05:30.003Z,54.70
2023-02-13T00:07:57.415Z,54.26
2023-02-13T00:10:24.469Z,54.75
2023-02-13T00:12:51.431Z,54.73
2023-02-13T00:15:18.732Z,54.41
2023-02-13T00:17:45.696Z,54.63
2023-02-13T00:20:12.895Z,54.44
2023-02-13T00:22:40.311Z,54.59
2023-02-13T00:25:08.390Z,54.62
2023-02-13T00:27:35.504Z,54.76
2023-02-13T00:30:03.797Z,54.78
2023-02-13T00:32:31.340Z,54.79
2023-02-13T00:34:58.510Z,54.93
2023-02-13T00:37:26.267Z,55.10
2023-02-13T00:39:53.641Z,55.20
2023-02-13T00:42:24.285Z,55.30
2023-02-13T00:44:51.318Z,55.06
2023-02-13T00:47:18.445Z,55.51
2023-02-13T00:49:45.835Z,55.24
2023-02-13T00:52:13.178Z,55.67
2023-02-13T00:54:40.133Z,55.16
2023-02-13T00:57:07.135Z,55.27
2023-02-13T00:59:35.212Z,55.24
2023-02-13T01:02:02.302Z,55.12
2023-02-13T01:04:29.312Z,55.38
2023-02-13T01:06:57.486Z,55.36
2023-02-13T01:09:25.712Z,55.29
2023-02-13T01:11:52.810Z,55.82
2023-02-13T01:14:20.209Z,55.54
2023-02-13T01:16:49.252Z,55.55
2023-02-13T01:19:16.223Z,55.49
2023-02-13T01:21:44.373Z,55.67
2023-02-13T01:24:11.842Z,55.37
2023-02-13T01:26:38.996Z,55.20
2023-02-13T01:29:06.374Z,55.53
2023-02-13T01:31:33.821Z,55.48
2023-02-13T01:34:00.925Z,55.54
2023-02-13T01:36:27.911Z,55.87
2023-02-13T01:38:59.801Z,55.69
2023-02-13T01:41:28.251Z,55.74
2023-02-13T01:44:01.180Z,55.57
2023-02-13T01:46:34.212Z,55.81
2023-02-13T01:49:18.912Z,55.55
2023-02-13T01:51:47.470Z,55.93
2023-02-13T01:54:21.846Z,57.43
2023-02-13T01:57:03.624Z,56.88
2023-02-13T01:59:37.829Z,56.63
2023-02-13T02:02:05.051Z,56.90
2023-02-13T02:04:36.161Z,56.58
2023-02-13T02:07:14.507Z,57.07
2023-02-13T02:09:44.494Z,56.81
2023-02-13T02:12:29.530Z,57.42
2023-02-13T02:15:00.535Z,57.18
2023-02-13T02:17:31.713Z,57.21
2023-02-13T02:20:18.198Z,57.17
2023-02-13T02:23:17.509Z,57.20
2023-02-13T02:26:06.061Z,57.17
2023-02-13T02:29:07.990Z,57.15
2023-02-13T02:31:55.642Z,57.29
2023-02-13T02:34:46.421Z,57.21
2023-02-13T02:37:26.110Z,57.75
2023-02-13T02:40:15.482Z,58.16
2023-02-13T02:43:10.535Z,57.63
2023-02-13T02:45:54.705Z,58.25
2023-02-13T02:49:07.736Z,57.47
2023-02-13T02:51:48.648Z,57.47
2023-02-13T02:54:50.208Z,57.44
2023-02-13T02:57:24.969Z,57.36
2023-02-13T03:00:18.066Z,57.86
2023-02-13T03:03:03.780Z,57.42
2023-02-13T03:05:52.997Z,57.34
2023-02-13T03:08:40.046Z,58.54
2023-02-13T03:11:26.114Z,58.32
2023-02-13T03:13:54.375Z,58.25
2023-02-13T03:16:41.063Z,58.38
2023-02-13T03:19:36.624Z,58.68
2023-02-13T03:22:20.990Z,58.38
2023-02-13T03:25:04.201Z,58.15
2023-02-13T03:28:15.997Z,57.92
2023-02-13T03:31:24.442Z,58.02
2023-02-13T03:34:15.769Z,57.78
2023-02-13T03:37:13.055Z,57.69
2023-02-13T03:40:35.234Z,57.61
2023-02-13T03:43:11.074Z,57.65
2023-02-13T03:45:57.499Z,57.75
2023-02-13T03:48:50.388Z,57.63
2023-02-13T03:51:27.711Z,57.63
2023-02-13T03:54:01.504Z,57.84
2023-02-13T03:56:51.320Z,57.69
2023-02-13T03:59:30.994Z,57.49
2023-02-13T04:02:14.894Z,57.73
2023-02-13T04:04:54.294Z,57.40
2023-02-13T04:07:33.412Z,57.41
2023-02-13T04:10:07.467Z,57.56
2023-02-13T04:13:02.484Z,58.50
2023-02-13T04:15:29.410Z,58.57
2023-02-13T04:18:05.811Z,59.29
2023-02-13T04:20:33.229Z,58.86
2023-02-13T04:23:08.658Z,58.81
2023-02-13T04:25:41.853Z,58.82
2023-02-13T04:28:09.014Z,58.88
2023-02-13T04:30:36.107Z,58.98
2023-02-13T04:33:03.232Z,58.93
2023-02-13T04:35:30.337Z,58.98
2023-02-13T04:37:57.331Z,58.81
2023-02-13T04:40:24.492Z,58.88
2023-02-13T04:42:51.453Z,58.42
2023-02-13T04:45:18.682Z,58.38
2023-02-13T04:47:53.149Z,58.60
2023-02-13T04:50:20.564Z,59.04
2023-02-13T04:52:47.746Z,59.02
2023-02-13T04:55:14.695Z,59.19
2023-02-13T04:57:41.714Z,59.27
2023-02-13T05:00:10.339Z,59.67
2023-02-13T05:02:39.294Z,59.87
2023-02-13T05:05:06.896Z,60.24
2023-02-13T05:07:33.913Z,60.02
2023-02-13T05:10:00.850Z,59.89
2023-02-13T05:12:27.843Z,60.13
2023-02-13T05:14:54.906Z,59.96
2023-02-13T05:17:21.865Z,59.79
2023-02-13T05:19:48.809Z,59.59
2023-02-13T05:22:34.292Z,59.63
2023-02-13T05:25:01.255Z,59.95
2023-02-13T05:27:28.220Z,59.74
2023-02-13T05:29:55.265Z,59.45
2023-02-13T05:32:22.185Z,59.53
2023-02-13T05:34:49.193Z,59.04
2023-02-13T05:37:16.231Z,59.18
2023-02-13T05:39:43.286Z,59.66
2023-02-13T05:42:10.838Z,59.33
2023-02-13T05:44:37.850Z,59.64
2023-02-13T05:47:05.567Z,59.73
2023-02-13T05:49:33.347Z,60.71
2023-02-13T05:52:00.290Z,59.77
2023-02-13T05:54:27.336Z,60.13
2023-02-13T05:56:54.320Z,60.12
2023-02-13T05:59:23.926Z,60.21
2023-02-13T06:01:51.129Z,60.27
2023-02-13T06:04:18.224Z,60.00
2023-02-13T06:06:45.764Z,60.13
2023-02-13T06:09:12.911Z,59.86
2023-02-13T06:11:40.006Z,59.96
2023-02-13T06:14:07.003Z,59.63
2023-02-13T06:16:34.861Z,59.42
2023-02-13T06:19:01.928Z,59.63
2023-02-13T06:21:28.922Z,59.79
2023-02-13T06:23:55.863Z,60.21
2023-02-13T06:26:22.841Z,60.44
2023-02-13T06:28:49.804Z,60.71
2023-02-13T06:31:16.889Z,60.55
2023-02-13T06:33:43.943Z,60.67
2023-02-13T06:36:10.893Z,61.03
2023-02-13T06:38:37.904Z,61.11
2023-02-13T06:41:05.104Z,60.64
2023-02-13T06:43:32.114Z,60.67
2023-02-13T06:45:59.386Z,60.82
2023-02-13T06:48:26.436Z,60.12
2023-02-13T06:50:53.457Z,59.81
2023-02-13T06:53:25.040Z,59.60
2023-02-13T06:55:53.808Z,59.75
2023-02-13T06:58:21.863Z,59.76
2023-02-13T07:00:49.537Z,59.92
2023-02-13T07:03:16.538Z,60.25
2023-02-13T07:05:44.665Z,59.82
2023-02-13T07:08:13.314Z,59.99
2023-02-13T07:10:42.134Z,59.84
2023-02-13T07:13:09.962Z,59.32
2023-02-13T07:15:38.287Z,59.41
2023-02-13T07:18:05.740Z,59.36
2023-02-13T07:20:33.659Z,58.97
2023-02-13T07:23:02.148Z,59.29
2023-02-13T07:25:29.825Z,59.14
2023-02-13T07:28:05.261Z,58.99
2023-02-13T07:30:34.051Z,58.82
2023-02-13T07:33:05.250Z,59.03
2023-02-13T07:35:32.585Z,59.36
2023-02-13T07:38:00.997Z,59.32
2023-02-13T07:40:28.359Z,59.35
2023-02-13T07:42:56.256Z,58.79
2023-02-13T07:45:23.303Z,58.78
2023-02-13T07:47:50.243Z,58.50
2023-02-13T07:50:17.448Z,58.34
2023-02-13T07:52:44.433Z,58.26
2023-02-13T07:55:11.951Z,57.99
2023-02-13T07:57:38.975Z,58.09
2023-02-13T08:00:06.568Z,57.87
2023-02-13T08:02:38.782Z,57.86
2023-02-13T08:05:06.211Z,57.59
2023-02-13T08:07:33.721Z,57.42
2023-02-13T08:10:19.181Z,57.72
2023-02-13T08:12:47.498Z,57.31
2023-02-13T08:15:15.107Z,57.15
2023-02-13T08:17:42.128Z,57.01
2023-02-13T08:20:09.744Z,56.74
2023-02-13T08:22:38.071Z,56.52
2023-02-13T08:25:06.738Z,56.74
2023-02-13T08:27:34.142Z,56.67
2023-02-13T08:30:02.025Z,56.47
2023-02-13T08:32:29.228Z,56.50
2023-02-13T08:34:56.205Z,56.77
2023-02-13T08:37:23.206Z,56.70
2023-02-13T08:39:50.374Z,55.89
2023-02-13T08:42:17.416Z,55.25
2023-02-13T08:44:44.917Z,55.13
2023-02-13T08:47:11.959Z,54.75
2023-02-13T08:49:38.916Z,54.48
2023-02-13T08:52:06.043Z,54.48
2023-02-13T08:54:35.795Z,53.95
2023-02-13T08:57:02.790Z,53.66
2023-02-13T08:59:29.762Z,53.98
2023-02-13T09:01:58.057Z,53.74
2023-02-13T09:04:24.835Z,52.92
2023-02-13T09:06:51.881Z,52.56
2023-02-13T09:09:19.434Z,52.07
2023-02-13T09:11:46.484Z,52.05
2023-02-13T09:14:13.484Z,51.49
2023-02-13T09:16:40.514Z,51.35
2023-02-13T09:19:07.510Z,51.25
2023-02-13T09:21:34.630Z,51.17
2023-02-13T09:24:01.580Z,50.52
2023-02-13T09:26:28.579Z,49.94
2023-02-13T09:28:55.530Z,49.92
2023-02-13T09:31:24.593Z,49.53
2023-02-13T09:33:51.821Z,49.81
2023-02-13T09:36:24.353Z,49.29
2023-02-13T09:38:56.033Z,47.85
2023-02-13T09:41:31.033Z,48.08
2023-02-13T09:44:03.291Z,47.34
2023-02-13T09:46:34.623Z,46.81
2023-02-13T09:49:26.822Z,45.65
2023-02-13T09:51:57.537Z,45.42
2023-02-13T09:54:26.847Z,45.41
2023-02-13T09:57:07.437Z,45.23
2023-02-13T09:59:45.482Z,44.42
2023-02-13T10:02:31.702Z,44.41
2023-02-13T10:05:18.067Z,43.67
2023-02-13T10:08:16.704Z,44.25
2023-02-13T10:10:58.759Z,43.30
2023-02-13T10:13:48.187Z,42.72
2023-02-13T10:16:44.678Z,42.18
2023-02-13T10:19:19.579Z,42.28
2023-02-13T10:21:58.788Z,40.53
2023-02-13T10:24:54.511Z,40.86
2023-02-13T10:27:28.545Z,40.57
2023-02-13T10:30:06.419Z,40.83
2023-02-13T10:33:19.313Z,39.55
2023-02-13T10:35:49.639Z,39.83
2023-02-13T10:38:20.557Z,39.91
2023-02-13T10:41:06.903Z,38.81
2023-02-13T10:43:47.730Z,38.58
2023-02-13T10:46:49.867Z,38.55
2023-02-13T10:49:48.472Z,38.29
2023-02-13T10:52:30.563Z,38.72
2023-02-13T10:55:15.696Z,38.28
2023-02-13T10:57:54.961Z,38.20
2023-02-13T11:01:05.450Z,38.15
2023-02-13T11:03:32.456Z,37.84
2023-02-13T11:06:05.965Z,37.67
2023-02-13T11:08:44.668Z,37.27
2023-02-13T11:11:33.093Z,37.11
2023-02-13T11:14:29.148Z,36.00
2023-02-13T11:17:03.063Z,36.85
2023-02-13T11:19:34.329Z,36.42
2023-02-13T11:22:13.703Z,36.87
2023-02-13T11:24:43.054Z,36.59
2023-02-13T11:27:14.087Z,35.99
2023-02-13T11:29:56.284Z,35.80
2023-02-13T11:32:24.959Z,36.34
2023-02-13T11:34:52.499Z,35.63
2023-02-13T11:37:26.326Z,35.59
2023-02-13T11:39:56.223Z,35.31
2023-02-13T11:42:35.466Z,35.65
2023-02-13T11:45:21.252Z,35.26
2023-02-13T11:47:48.444Z,35.71
2023-02-13T11:50:41.065Z,34.70
2023-02-13T11:53:18.983Z,34.81
2023-02-13T11:56:01.030Z,34.92
2023-02-13T11:58:31.110Z,33.87
2023-02-13T12:13:39.179Z,33.67
2023-02-13T12:16:14.474Z,33.23
2023-02-13T12:18:46.706Z,33.92
2023-02-13T12:21:45.597Z,33.55
2023-02-13T12:24:31.711Z,33.49
2023-02-13T12:27:26.358Z,33.00
2023-02-13T12:30:12.157Z,33.33
2023-02-13T12:33:17.278Z,32.86
2023-02-13T12:36:28.050Z,31.75
2023-02-13T12:39:18.167Z,31.80
2023-02-13T12:42:09.787Z,31.66
2023-02-13T12:45:03.278Z,31.11
2023-02-13T12:47:37.228Z,30.56
2023-02-13T12:50:38.394Z,30.50
2023-02-13T12:53:20.758Z,29.59
2023-02-13T12:55:57.418Z,29.77
2023-02-13T12:58:43.199Z,29.67
2023-02-13T13:01:16.236Z,29.87
2023-02-13T13:03:51.047Z,29.28
2023-02-13T13:06:42.707Z,29.04
2023-02-13T13:09:21.734Z,28.41
2023-02-13T13:12:14.005Z,28.05
2023-02-13T13:15:03.546Z,27.53
2023-02-13T13:18:11.501Z,26.43
2023-02-13T13:20:52.341Z,25.69
2023-02-13T13:23:21.797Z,25.41
2023-02-13T13:25:58.027Z,24.22
2023-02-13T13:28:29.879Z,23.13
2023-02-13T13:30:59.186Z,22.33
2023-02-13T13:33:28.597Z,21.39
2023-02-13T13:36:05.241Z,20.95
2023-02-13T13:38:43.998Z,20.03
2023-02-13T13:41:23.066Z,19.79
2023-02-13T13:44:18.062Z,19.50
2023-02-13T13:46:50.856Z,18.55
2023-02-13T13:49:53.987Z,18.44
2023-02-13T13:52:39.852Z,18.11
2023-02-13T13:55:07.178Z,18.14
2023-02-13T13:57:39.654Z,18.09
2023-02-13T14:00:10.504Z,17.87
2023-02-13T14:02:51.381Z,17.38
2023-02-13T14:05:20.399Z,17.53
2023-02-13T14:07:51.131Z,18.76
2023-02-13T14:10:21.137Z,19.72
2023-02-13T14:12:50.380Z,21.16
2023-02-13T14:15:39.054Z,22.95
2023-02-13T14:18:14.608Z,23.92
2023-02-13T14:21:02.111Z,24.51
2023-02-13T14:23:32.174Z,25.15
2023-02-13T14:26:16.355Z,27.35
2023-02-13T14:28:49.463Z,27.48
2023-02-13T14:31:33.520Z,28.21
2023-02-13T14:34:06.343Z,29.13
2023-02-13T14:36:36.733Z,29.70
2023-02-13T14:39:26.033Z,31.43
2023-02-13T14:41:55.831Z,31.56
2023-02-13T14:44:25.517Z,32.31
2023-02-13T14:46:54.723Z,31.32
2023-02-13T14:49:30.947Z,32.79
2023-02-13T14:52:01.925Z,32.15
2023-02-13T14:54:45.801Z,33.15
2023-02-13T14:57:34.664Z,33.05
2023-02-13T15:00:09.281Z,33.66
2023-02-13T15:02:42.855Z,33.52
2023-02-13T15:05:16.557Z,34.73
2023-02-13T15:08:25.204Z,35.82
2023-02-13T15:10:55.159Z,35.17
2023-02-13T15:13:23.735Z,35.63
2023-02-13T15:16:06.480Z,35.02
2023-02-13T15:18:45.273Z,36.34
2023-02-13T15:21:17.290Z,35.59
2023-02-13T15:23:45.463Z,37.21
2023-02-13T15:26:24.108Z,37.80
2023-02-13T15:29:01.726Z,38.01
2023-02-13T15:31:33.947Z,38.00
2023-02-13T15:34:02.086Z,37.84
2023-02-13T15:36:36.241Z,38.30
2023-02-13T15:39:10.471Z,38.73
2023-02-13T15:41:44.137Z,38.75
2023-02-13T15:44:18.835Z,38.53
2023-02-13T15:46:49.859Z,38.78
2023-02-13T15:49:20.572Z,38.63
2023-02-13T15:51:48.865Z,39.45
2023-02-13T15:54:23.743Z,40.17
2023-02-13T15:56:53.614Z,40.28
2023-02-13T15:59:21.588Z,40.46
2023-02-13T16:01:50.871Z,40.62
2023-02-13T16:04:20.834Z,40.88
2023-02-13T16:06:50.565Z,41.40
2023-02-13T16:09:35.580Z,41.43
2023-02-13T16:12:04.327Z,41.72
2023-02-13T16:14:34.964Z,41.81
2023-02-13T16:17:15.851Z,41.95
2023-02-13T16:19:52.590Z,42.24
2023-02-13T16:22:28.394Z,42.66
2023-02-13T16:25:04.319Z,42.77
2023-02-13T16:27:31.505Z,42.86
2023-02-13T16:30:02.507Z,43.05
2023-02-13T16:32:35.340Z,43.98
2023-02-13T16:35:29.164Z,43.83
2023-02-13T16:38:00.706Z,44.17
2023-02-13T16:40:39.757Z,44.87
2023-02-13T16:43:39.749Z,44.83
2023-02-13T16:46:17.953Z,45.14
2023-02-13T16:48:57.096Z,45.23
2023-02-13T16:51:30.464Z,45.52
2023-02-13T16:53:59.490Z,45.50
2023-02-13T16:56:26.869Z,45.62
2023-02-13T16:59:23.078Z,46.04
2023-02-13T17:02:11.370Z,46.25
2023-02-13T17:04:39.513Z,46.23
2023-02-13T17:07:12.848Z,46.35
2023-02-13T17:09:40.034Z,46.74
2023-02-13T17:12:14.877Z,47.06
2023-02-13T17:14:42.406Z,46.68
2023-02-13T17:17:18.692Z,46.88
2023-02-13T17:19:46.200Z,46.96
2023-02-13T17:22:47.711Z,47.03
2023-02-13T17:25:35.548Z,47.34
2023-02-13T17:28:12.411Z,47.99
2023-02-13T17:30:39.678Z,47.76
2023-02-13T17:33:12.564Z,47.77
2023-02-13T17:35:39.812Z,48.15
2023-02-13T17:38:08.548Z,47.87
2023-02-13T17:40:35.907Z,48.21
2023-02-13T17:43:03.696Z,48.47
2023-02-13T17:45:32.862Z,48.16
2023-02-13T17:48:00.047Z,48.26
2023-02-13T17:50:29.104Z,48.92
2023-02-13T17:52:57.327Z,48.78
2023-02-13T17:55:29.440Z,48.65
2023-02-13T17:57:58.266Z,49.32
2023-02-13T18:00:32.246Z,48.77
2023-02-13T18:03:00.693Z,48.83
2023-02-13T18:05:28.470Z,48.51
2023-02-13T18:07:56.077Z,48.39
2023-02-13T18:10:28.721Z,49.40
2023-02-13T18:12:58.487Z,50.40
2023-02-13T18:15:25.571Z,50.58
2023-02-13T18:17:52.534Z,50.38
2023-02-13T18:20:21.072Z,50.34
2023-02-13T18:22:51.968Z,50.83
2023-02-13T18:25:20.952Z,51.09
2023-02-13T18:27:48.759Z,50.91
2023-02-13T18:30:18.685Z,50.69
2023-02-13T18:32:46.357Z,50.70
2023-02-13T18:35:13.373Z,50.44
2023-02-13T18:37:40.466Z,51.32
2023-02-13T18:40:08.660Z,51.40
2023-02-13T18:42:36.308Z,52.30
2023-02-13T18:45:03.934Z,51.95
2023-02-13T18:47:31.167Z,51.51
2023-02-13T18:49:58.225Z,51.24
2023-02-13T18:52:25.206Z,51.17
2023-02-13T18:54:52.393Z,51.61
2023-02-13T18:57:19.363Z,51.61
2023-02-13T18:59:46.403Z,51.81
2023-02-13T19:02:13.653Z,51.76
2023-02-13T19:04:40.888Z,51.74
2023-02-13T19:07:07.851Z,52.33
2023-02-13T19:09:40.243Z,52.19
2023-02-13T19:12:08.433Z,52.75
2023-02-13T19:14:35.398Z,53.17
2023-02-13T19:17:03.707Z,53.25
2023-02-13T19:19:30.663Z,53.61
2023-02-13T19:21:57.911Z,52.57
2023-02-13T19:24:25.015Z,53.10
2023-02-13T19:26:51.979Z,53.25
2023-02-13T19:29:19.161Z,52.98
2023-02-13T19:31:46.364Z,53.12
2023-02-13T19:34:13.477Z,53.42
2023-02-13T19:36:40.476Z,53.41
2023-02-13T19:39:09.398Z,54.36
2023-02-13T19:41:36.508Z,53.93
2023-02-13T19:44:05.518Z,53.41
2023-02-13T19:46:33.090Z,53.90
2023-02-13T19:49:00.595Z,53.60
2023-02-13T19:51:31.587Z,53.58
2023-02-13T19:54:10.421Z,53.70
2023-02-13T19:56:39.339Z,54.06
2023-02-13T19:59:08.119Z,53.82
2023-02-13T20:01:35.143Z,54.07
2023-02-13T20:04:02.205Z,53.97
2023-02-13T20:06:36.127Z,54.00
2023-02-13T20:09:08.238Z,54.36
2023-02-13T20:11:35.322Z,53.93
2023-02-13T20:14:05.528Z,53.55
2023-02-13T20:16:35.261Z,53.79
2023-02-13T20:19:07.146Z,54.06
2023-02-13T20:21:35.134Z,54.04
2023-02-13T20:24:05.465Z,53.99
2023-02-13T20:26:32.758Z,54.39
2023-02-13T20:29:00.460Z,54.59
2023-02-13T20:31:29.629Z,54.28
2023-02-13T20:33:58.065Z,54.34
2023-02-13T20:36:28.233Z,54.06
2023-02-13T20:38:59.780Z,54.56
2023-02-13T20:41:30.118Z,54.48
2023-02-13T20:43:59.404Z,55.00
2023-02-13T20:46:26.825Z,56.20
2023-02-13T20:48:53.867Z,55.27
2023-02-13T20:51:20.803Z,55.14
2023-02-13T20:53:48.302Z,55.14
2023-02-13T20:56:20.902Z,54.87
2023-02-13T20:58:50.740Z,55.19
2023-02-13T21:01:26.728Z,55.55
2023-02-13T21:03:55.237Z,55.78
2023-02-13T21:06:28.457Z,56.13
2023-02-13T21:08:56.166Z,56.27
2023-02-13T21:11:23.518Z,55.69
2023-02-13T21:13:51.259Z,55.20
2023-02-13T21:16:23.841Z,55.48
2023-02-13T21:18:57.280Z,55.47
2023-02-13T21:21:26.443Z,55.77
2023-02-13T21:23:58.382Z,55.78
2023-02-13T21:26:27.121Z,55.90
2023-02-13T21:28:54.546Z,56.55
2023-02-13T21:31:29.559Z,56.69
2023-02-13T21:34:03.326Z,57.01
2023-02-13T21:36:31.151Z,58.12
2023-02-13T21:38:58.446Z,57.50
2023-02-13T21:41:25.637Z,57.27
2023-02-13T21:43:52.905Z,56.66
2023-02-13T21:46:23.203Z,56.41
2023-02-13T21:48:55.488Z,56.61
2023-02-13T21:51:24.056Z,56.47
2023-02-13T21:53:51.887Z,56.61
2023-02-13T21:56:21.873Z,56.98
2023-02-13T21:58:49.709Z,57.39
2023-02-13T22:01:26.894Z,57.11
2023-02-13T22:04:00.928Z,57.27
2023-02-13T22:06:30.491Z,56.97
2023-02-13T22:08:59.345Z,56.89
2023-02-13T22:11:27.167Z,57.06
2023-02-13T22:13:56.804Z,57.02
2023-02-13T22:16:24.409Z,56.96
2023-02-13T22:18:51.453Z,56.95
2023-02-13T22:21:21.563Z,56.95
2023-02-13T22:23:49.232Z,57.73
2023-02-13T22:26:23.528Z,57.75
2023-02-13T22:28:51.177Z,57.34
2023-02-13T22:31:19.175Z,57.35
2023-02-13T22:33:52.361Z,57.15
2023-02-13T22:36:26.086Z,56.93
2023-02-13T22:38:53.696Z,57.20
2023-02-13T22:41:23.508Z,56.99
2023-02-13T22:43:51.458Z,57.36
2023-02-13T22:46:30.368Z,57.07
2023-02-13T22:48:58.187Z,57.34
2023-02-13T22:51:32.389Z,57.11
2023-02-13T22:53:59.915Z,57.67
2023-02-13T22:56:28.437Z,57.74
2023-02-13T22:58:55.764Z,57.45
2023-02-13T23:01:25.124Z,57.71
2023-02-13T23:03:52.676Z,56.99
2023-02-13T23:06:22.090Z,56.99
2023-02-13T23:08:55.174Z,57.06
2023-02-13T23:11:44.322Z,57.72
2023-02-13T23:14:12.302Z,58.20
2023-02-13T23:16:58.649Z,57.94
2023-02-13T23:19:27.809Z,58.25
2023-02-13T23:21:54.849Z,58.03
2023-02-13T23:24:21.983Z,57.88
2023-02-13T23:26:48.928Z,57.45
2023-02-13T23:29:15.935Z,57.38
2023-02-13T23:31:42.999Z,57.28
2023-02-13T23:34:10.108Z,58.25
2023-02-13T23:36:37.045Z,58.26
2023-02-13T23:39:04.121Z,58.19
2023-02-13T23:41:31.081Z,58.15
2023-02-13T23:43:58.091Z,58.14
2023-02-13T23:46:25.151Z,58.14
2023-02-13T23:48:52.261Z,57.89
2023-02-13T23:51:21.138Z,57.92
2023-02-13T23:53:48.133Z,57.74
2023-02-13T23:56:15.353Z,58.17
2023-02-13T23:58:42.367Z,57.92
